sensor_id;sensor_type;location;lat;lon;timestamp;P1;durP1;ratioP1;P2;durP2;ratioP2
10114;SDS011;5097;43.260;27.812;2023-07-29T00:01:41;3.50;;;3.03;;
10114;SDS011;5097;43.260;27.812;2023-07-29T00:04:26;3.10;;;2.90;;
10114;SDS011;5097;43.260;27.812;2023-07-29T00:07:10;3.63;;;2.80;;
10114;SDS011;5097;43.260;27.812;2023-07-29T00:09:54;5.22;;;3.20;;
10114;SDS011;5097;43.260;27.812;2023-07-29T00:12:38;4.25;;;3.30;;
10114;SDS011;5097;43.260;27.812;2023-07-29T00:15:22;12.80;;;3.03;;
10114;SDS011;5097;43.260;27.812;2023-07-29T00:18:06;4.20;;;3.13;;
10114;SDS011;5097;43.260;27.812;2023-07-29T00:20:52;3.37;;;2.77;;
10114;SDS011;5097;43.260;27.812;2023-07-29T00:23:36;3.92;;;3.50;;
10114;SDS011;5097;43.260;27.812;2023-07-29T00:26:20;3.20;;;2.92;;
10114;SDS011;5097;43.260;27.812;2023-07-29T00:29:04;3.08;;;2.88;;
10114;SDS011;5097;43.260;27.812;2023-07-29T00:31:49;3.90;;;3.05;;
10114;SDS011;5097;43.260;27.812;2023-07-29T00:34:35;3.63;;;2.85;;
10114;SDS011;5097;43.260;27.812;2023-07-29T00:37:20;3.93;;;3.17;;
10114;SDS011;5097;43.260;27.812;2023-07-29T00:40:06;5.37;;;3.00;;
10114;SDS011;5097;43.260;27.812;2023-07-29T00:42:58;3.60;;;3.00;;
10114;SDS011;5097;43.260;27.812;2023-07-29T00:45:42;3.17;;;2.80;;
10114;SDS011;5097;43.260;27.812;2023-07-29T00:48:28;3.88;;;3.00;;
10114;SDS011;5097;43.260;27.812;2023-07-29T00:51:13;3.10;;;2.80;;
10114;SDS011;5097;43.260;27.812;2023-07-29T00:53:58;8.48;;;3.28;;
10114;SDS011;5097;43.260;27.812;2023-07-29T00:56:43;5.13;;;3.15;;
10114;SDS011;5097;43.260;27.812;2023-07-29T00:59:27;3.53;;;2.90;;
10114;SDS011;5097;43.260;27.812;2023-07-29T01:02:12;3.42;;;2.55;;
10114;SDS011;5097;43.260;27.812;2023-07-29T01:04:57;4.53;;;3.10;;
10114;SDS011;5097;43.260;27.812;2023-07-29T01:07:47;3.30;;;2.83;;
10114;SDS011;5097;43.260;27.812;2023-07-29T01:10:37;3.33;;;3.03;;
10114;SDS011;5097;43.260;27.812;2023-07-29T01:13:31;2.83;;;2.63;;
10114;SDS011;5097;43.260;27.812;2023-07-29T01:16:24;3.97;;;3.43;;
10114;SDS011;5097;43.260;27.812;2023-07-29T01:19:15;3.72;;;3.42;;
10114;SDS011;5097;43.260;27.812;2023-07-29T01:22:11;3.88;;;3.22;;
10114;SDS011;5097;43.260;27.812;2023-07-29T01:24:59;4.30;;;3.28;;
10114;SDS011;5097;43.260;27.812;2023-07-29T01:27:45;3.75;;;3.40;;
10114;SDS011;5097;43.260;27.812;2023-07-29T01:30:31;4.50;;;3.10;;
10114;SDS011;5097;43.260;27.812;2023-07-29T01:33:20;6.03;;;3.10;;
10114;SDS011;5097;43.260;27.812;2023-07-29T01:36:11;3.50;;;3.15;;
10114;SDS011;5097;43.260;27.812;2023-07-29T01:38:59;3.60;;;3.30;;
10114;SDS011;5097;43.260;27.812;2023-07-29T01:41:46;4.83;;;3.57;;
10114;SDS011;5097;43.260;27.812;2023-07-29T01:44:31;4.15;;;3.00;;
10114;SDS011;5097;43.260;27.812;2023-07-29T01:47:16;3.58;;;3.13;;
10114;SDS011;5097;43.260;27.812;2023-07-29T01:50:00;5.60;;;3.30;;
10114;SDS011;5097;43.260;27.812;2023-07-29T01:52:46;2.92;;;2.72;;
10114;SDS011;5097;43.260;27.812;2023-07-29T01:55:30;3.65;;;3.35;;
10114;SDS011;5097;43.260;27.812;2023-07-29T01:58:16;3.40;;;3.17;;
10114;SDS011;5097;43.260;27.812;2023-07-29T02:01:02;7.30;;;3.10;;
10114;SDS011;5097;43.260;27.812;2023-07-29T02:03:46;3.03;;;2.83;;
10114;SDS011;5097;43.260;27.812;2023-07-29T02:06:35;3.10;;;2.77;;
10114;SDS011;5097;43.260;27.812;2023-07-29T02:09:20;3.40;;;3.10;;
10114;SDS011;5097;43.260;27.812;2023-07-29T02:12:05;4.32;;;3.20;;
10114;SDS011;5097;43.260;27.812;2023-07-29T02:14:54;5.47;;;3.20;;
10114;SDS011;5097;43.260;27.812;2023-07-29T02:17:41;4.10;;;2.67;;
10114;SDS011;5097;43.260;27.812;2023-07-29T02:20:26;3.85;;;3.28;;
10114;SDS011;5097;43.260;27.812;2023-07-29T02:23:10;4.88;;;3.55;;
10114;SDS011;5097;43.260;27.812;2023-07-29T02:25:54;3.50;;;3.17;;
10114;SDS011;5097;43.260;27.812;2023-07-29T02:28:38;3.72;;;3.25;;
10114;SDS011;5097;43.260;27.812;2023-07-29T02:31:24;4.78;;;3.10;;
10114;SDS011;5097;43.260;27.812;2023-07-29T02:34:08;3.20;;;3.00;;
10114;SDS011;5097;43.260;27.812;2023-07-29T02:36:52;3.28;;;3.00;;
10114;SDS011;5097;43.260;27.812;2023-07-29T02:39:37;3.10;;;2.90;;
10114;SDS011;5097;43.260;27.812;2023-07-29T02:42:21;3.73;;;2.90;;
10114;SDS011;5097;43.260;27.812;2023-07-29T02:45:08;3.00;;;2.67;;
10114;SDS011;5097;43.260;27.812;2023-07-29T02:47:55;3.43;;;2.73;;
10114;SDS011;5097;43.260;27.812;2023-07-29T02:50:39;4.10;;;3.57;;
10114;SDS011;5097;43.260;27.812;2023-07-29T02:53:23;2.90;;;2.70;;
10114;SDS011;5097;43.260;27.812;2023-07-29T02:56:08;2.57;;;2.47;;
10114;SDS011;5097;43.260;27.812;2023-07-29T02:58:52;4.53;;;2.60;;
10114;SDS011;5097;43.260;27.812;2023-07-29T03:01:36;3.70;;;2.92;;
10114;SDS011;5097;43.260;27.812;2023-07-29T03:04:22;4.32;;;2.88;;
10114;SDS011;5097;43.260;27.812;2023-07-29T03:07:06;3.60;;;2.30;;
10114;SDS011;5097;43.260;27.812;2023-07-29T03:09:50;4.80;;;3.10;;
10114;SDS011;5097;43.260;27.812;2023-07-29T03:12:34;4.10;;;2.57;;
10114;SDS011;5097;43.260;27.812;2023-07-29T03:15:18;7.57;;;3.40;;
10114;SDS011;5097;43.260;27.812;2023-07-29T03:18:03;3.60;;;2.90;;
10114;SDS011;5097;43.260;27.812;2023-07-29T03:20:50;3.10;;;2.90;;
10114;SDS011;5097;43.260;27.812;2023-07-29T03:23:34;4.07;;;2.90;;
10114;SDS011;5097;43.260;27.812;2023-07-29T03:26:18;3.60;;;2.83;;
10114;SDS011;5097;43.260;27.812;2023-07-29T03:29:02;3.23;;;3.03;;
10114;SDS011;5097;43.260;27.812;2023-07-29T03:31:47;5.63;;;2.92;;
10114;SDS011;5097;43.260;27.812;2023-07-29T03:34:31;4.73;;;2.80;;
10114;SDS011;5097;43.260;27.812;2023-07-29T03:37:17;3.00;;;2.80;;
10114;SDS011;5097;43.260;27.812;2023-07-29T03:40:01;5.10;;;2.90;;
10114;SDS011;5097;43.260;27.812;2023-07-29T03:42:47;2.97;;;2.77;;
10114;SDS011;5097;43.260;27.812;2023-07-29T03:45:31;4.50;;;3.03;;
10114;SDS011;5097;43.260;27.812;2023-07-29T03:48:15;4.70;;;2.77;;
10114;SDS011;5097;43.260;27.812;2023-07-29T03:50:59;4.40;;;2.87;;
10114;SDS011;5097;43.260;27.812;2023-07-29T03:53:45;3.03;;;2.70;;
10114;SDS011;5097;43.260;27.812;2023-07-29T03:56:29;4.20;;;2.78;;
10114;SDS011;5097;43.260;27.812;2023-07-29T03:59:13;3.67;;;2.72;;
10114;SDS011;5097;43.260;27.812;2023-07-29T04:01:57;7.57;;;3.20;;
10114;SDS011;5097;43.260;27.812;2023-07-29T04:04:41;3.60;;;3.00;;
10114;SDS011;5097;43.260;27.812;2023-07-29T04:07:30;3.85;;;2.80;;
10114;SDS011;5097;43.260;27.812;2023-07-29T04:10:16;4.70;;;2.80;;
10114;SDS011;5097;43.260;27.812;2023-07-29T04:13:01;3.15;;;2.85;;
10114;SDS011;5097;43.260;27.812;2023-07-29T04:15:45;8.00;;;4.07;;
10114;SDS011;5097;43.260;27.812;2023-07-29T04:18:29;5.00;;;3.30;;
10114;SDS011;5097;43.260;27.812;2023-07-29T04:21:13;3.55;;;3.22;;
10114;SDS011;5097;43.260;27.812;2023-07-29T04:23:57;4.07;;;2.75;;
10114;SDS011;5097;43.260;27.812;2023-07-29T04:26:43;7.28;;;3.40;;
10114;SDS011;5097;43.260;27.812;2023-07-29T04:29:28;7.60;;;3.33;;
10114;SDS011;5097;43.260;27.812;2023-07-29T04:32:12;8.10;;;3.33;;
10114;SDS011;5097;43.260;27.812;2023-07-29T04:34:58;6.43;;;3.42;;
10114;SDS011;5097;43.260;27.812;2023-07-29T04:37:44;6.95;;;3.20;;
10114;SDS011;5097;43.260;27.812;2023-07-29T04:40:32;6.00;;;3.63;;
10114;SDS011;5097;43.260;27.812;2023-07-29T04:43:18;7.45;;;3.47;;
10114;SDS011;5097;43.260;27.812;2023-07-29T04:46:02;4.63;;;3.33;;
10114;SDS011;5097;43.260;27.812;2023-07-29T04:48:49;6.53;;;3.42;;
10114;SDS011;5097;43.260;27.812;2023-07-29T04:51:34;8.82;;;4.00;;
10114;SDS011;5097;43.260;27.812;2023-07-29T04:54:19;7.45;;;3.80;;
10114;SDS011;5097;43.260;27.812;2023-07-29T04:57:03;5.55;;;3.58;;
10114;SDS011;5097;43.260;27.812;2023-07-29T04:59:50;5.65;;;3.90;;
10114;SDS011;5097;43.260;27.812;2023-07-29T05:02:34;4.05;;;3.75;;
10114;SDS011;5097;43.260;27.812;2023-07-29T05:05:18;4.05;;;3.05;;
10114;SDS011;5097;43.260;27.812;2023-07-29T05:08:02;4.40;;;3.83;;
10114;SDS011;5097;43.260;27.812;2023-07-29T05:10:48;5.32;;;3.22;;
10114;SDS011;5097;43.260;27.812;2023-07-29T05:13:33;4.10;;;3.55;;
10114;SDS011;5097;43.260;27.812;2023-07-29T05:16:19;5.10;;;4.47;;
10114;SDS011;5097;43.260;27.812;2023-07-29T05:19:03;8.73;;;4.95;;
10114;SDS011;5097;43.260;27.812;2023-07-29T05:21:47;6.60;;;4.72;;
10114;SDS011;5097;43.260;27.812;2023-07-29T05:24:31;6.75;;;4.35;;
10114;SDS011;5097;43.260;27.812;2023-07-29T05:27:15;6.05;;;5.32;;
10114;SDS011;5097;43.260;27.812;2023-07-29T05:29:59;8.50;;;7.00;;
10114;SDS011;5097;43.260;27.812;2023-07-29T05:32:46;10.93;;;8.27;;
10114;SDS011;5097;43.260;27.812;2023-07-29T05:35:31;10.57;;;8.75;;
10114;SDS011;5097;43.260;27.812;2023-07-29T05:38:15;19.58;;;16.95;;
10114;SDS011;5097;43.260;27.812;2023-07-29T05:40:59;23.42;;;18.10;;
10114;SDS011;5097;43.260;27.812;2023-07-29T05:43:43;17.35;;;15.65;;
10114;SDS011;5097;43.260;27.812;2023-07-29T05:46:29;21.77;;;19.08;;
10114;SDS011;5097;43.260;27.812;2023-07-29T05:49:14;23.75;;;15.77;;
10114;SDS011;5097;43.260;27.812;2023-07-29T05:51:59;17.67;;;15.73;;
10114;SDS011;5097;43.260;27.812;2023-07-29T05:54:43;17.95;;;14.90;;
10114;SDS011;5097;43.260;27.812;2023-07-29T05:57:28;19.70;;;16.90;;
10114;SDS011;5097;43.260;27.812;2023-07-29T06:00:12;19.20;;;16.63;;
10114;SDS011;5097;43.260;27.812;2023-07-29T06:02:56;16.48;;;14.75;;
10114;SDS011;5097;43.260;27.812;2023-07-29T06:05:42;17.77;;;15.93;;
10114;SDS011;5097;43.260;27.812;2023-07-29T06:08:26;17.33;;;15.07;;
10114;SDS011;5097;43.260;27.812;2023-07-29T06:11:11;15.55;;;12.48;;
10114;SDS011;5097;43.260;27.812;2023-07-29T06:13:55;18.38;;;12.68;;
10114;SDS011;5097;43.260;27.812;2023-07-29T06:16:40;15.57;;;12.00;;
10114;SDS011;5097;43.260;27.812;2023-07-29T06:19:24;12.15;;;10.27;;
10114;SDS011;5097;43.260;27.812;2023-07-29T06:22:10;15.32;;;10.50;;
10114;SDS011;5097;43.260;27.812;2023-07-29T06:24:54;14.88;;;9.63;;
10114;SDS011;5097;43.260;27.812;2023-07-29T06:27:39;15.10;;;9.32;;
10114;SDS011;5097;43.260;27.812;2023-07-29T06:30:23;10.88;;;9.05;;
10114;SDS011;5097;43.260;27.812;2023-07-29T06:33:07;9.57;;;8.70;;
10114;SDS011;5097;43.260;27.812;2023-07-29T06:35:51;8.75;;;7.93;;
10114;SDS011;5097;43.260;27.812;2023-07-29T06:38:37;9.82;;;8.85;;
10114;SDS011;5097;43.260;27.812;2023-07-29T06:41:21;9.00;;;8.15;;
10114;SDS011;5097;43.260;27.812;2023-07-29T06:44:05;8.52;;;7.57;;
10114;SDS011;5097;43.260;27.812;2023-07-29T06:46:50;12.63;;;9.20;;
10114;SDS011;5097;43.260;27.812;2023-07-29T06:49:34;10.70;;;9.57;;
10114;SDS011;5097;43.260;27.812;2023-07-29T06:52:18;24.63;;;8.88;;
10114;SDS011;5097;43.260;27.812;2023-07-29T06:55:04;10.45;;;8.52;;
10114;SDS011;5097;43.260;27.812;2023-07-29T06:57:48;9.10;;;7.75;;
10114;SDS011;5097;43.260;27.812;2023-07-29T07:00:32;17.67;;;8.82;;
10114;SDS011;5097;43.260;27.812;2023-07-29T07:03:17;9.55;;;8.23;;
10114;SDS011;5097;43.260;27.812;2023-07-29T07:06:01;10.23;;;8.80;;
10114;SDS011;5097;43.260;27.812;2023-07-29T07:08:45;10.15;;;8.00;;
10114;SDS011;5097;43.260;27.812;2023-07-29T07:11:31;8.43;;;7.43;;
10114;SDS011;5097;43.260;27.812;2023-07-29T07:14:15;12.05;;;8.32;;
10114;SDS011;5097;43.260;27.812;2023-07-29T07:16:59;11.90;;;8.80;;
10114;SDS011;5097;43.260;27.812;2023-07-29T07:19:43;17.73;;;10.63;;
10114;SDS011;5097;43.260;27.812;2023-07-29T07:22:28;11.82;;;10.65;;
10114;SDS011;5097;43.260;27.812;2023-07-29T07:25:13;13.45;;;12.02;;
10114;SDS011;5097;43.260;27.812;2023-07-29T07:27:58;13.63;;;11.10;;
10114;SDS011;5097;43.260;27.812;2023-07-29T07:30:42;15.23;;;11.30;;
10114;SDS011;5097;43.260;27.812;2023-07-29T07:33:26;12.35;;;10.40;;
10114;SDS011;5097;43.260;27.812;2023-07-29T07:36:10;12.00;;;9.90;;
10114;SDS011;5097;43.260;27.812;2023-07-29T07:38:54;12.68;;;9.65;;
10114;SDS011;5097;43.260;27.812;2023-07-29T07:41:38;12.88;;;9.82;;
10114;SDS011;5097;43.260;27.812;2023-07-29T07:44:24;12.93;;;8.98;;
10114;SDS011;5097;43.260;27.812;2023-07-29T07:47:09;10.45;;;8.45;;
10114;SDS011;5097;43.260;27.812;2023-07-29T07:49:53;10.23;;;9.23;;
10114;SDS011;5097;43.260;27.812;2023-07-29T07:52:37;9.70;;;8.82;;
10114;SDS011;5097;43.260;27.812;2023-07-29T07:55:21;9.30;;;8.25;;
10114;SDS011;5097;43.260;27.812;2023-07-29T07:58:05;11.60;;;7.85;;
10114;SDS011;5097;43.260;27.812;2023-07-29T08:00:50;8.88;;;7.72;;
10114;SDS011;5097;43.260;27.812;2023-07-29T08:03:34;10.82;;;8.85;;
10114;SDS011;5097;43.260;27.812;2023-07-29T08:06:19;9.63;;;7.80;;
10114;SDS011;5097;43.260;27.812;2023-07-29T08:09:03;7.18;;;6.47;;
10114;SDS011;5097;43.260;27.812;2023-07-29T08:11:47;8.45;;;6.05;;
10114;SDS011;5097;43.260;27.812;2023-07-29T08:14:31;10.23;;;6.03;;
10114;SDS011;5097;43.260;27.812;2023-07-29T08:17:17;9.90;;;5.88;;
10114;SDS011;5097;43.260;27.812;2023-07-29T08:20:01;14.00;;;6.07;;
10114;SDS011;5097;43.260;27.812;2023-07-29T08:22:46;6.63;;;5.70;;
10114;SDS011;5097;43.260;27.812;2023-07-29T08:25:30;7.38;;;4.85;;
10114;SDS011;5097;43.260;27.812;2023-07-29T08:28:14;6.97;;;4.85;;
10114;SDS011;5097;43.260;27.812;2023-07-29T08:30:58;4.38;;;3.97;;
10114;SDS011;5097;43.260;27.812;2023-07-29T08:33:44;4.40;;;3.97;;
10114;SDS011;5097;43.260;27.812;2023-07-29T08:36:28;5.68;;;4.13;;
10114;SDS011;5097;43.260;27.812;2023-07-29T08:39:12;3.95;;;3.60;;
10114;SDS011;5097;43.260;27.812;2023-07-29T08:41:57;7.03;;;3.63;;
10114;SDS011;5097;43.260;27.812;2023-07-29T08:44:47;6.15;;;3.60;;
10114;SDS011;5097;43.260;27.812;2023-07-29T08:47:33;5.53;;;3.10;;
10114;SDS011;5097;43.260;27.812;2023-07-29T08:50:19;5.53;;;3.78;;
10114;SDS011;5097;43.260;27.812;2023-07-29T08:53:04;5.60;;;3.05;;
10114;SDS011;5097;43.260;27.812;2023-07-29T08:55:48;4.95;;;3.58;;
10114;SDS011;5097;43.260;27.812;2023-07-29T08:58:33;6.55;;;3.70;;
10114;SDS011;5097;43.260;27.812;2023-07-29T09:01:18;3.47;;;3.17;;
10114;SDS011;5097;43.260;27.812;2023-07-29T09:04:02;7.53;;;2.95;;
10114;SDS011;5097;43.260;27.812;2023-07-29T09:06:48;5.18;;;3.50;;
10114;SDS011;5097;43.260;27.812;2023-07-29T09:09:34;5.03;;;2.78;;
10114;SDS011;5097;43.260;27.812;2023-07-29T09:12:18;3.15;;;2.30;;
10114;SDS011;5097;43.260;27.812;2023-07-29T09:15:03;3.45;;;2.33;;
10114;SDS011;5097;43.260;27.812;2023-07-29T09:17:48;2.83;;;1.90;;
10114;SDS011;5097;43.260;27.812;2023-07-29T09:20:33;3.33;;;2.55;;
10114;SDS011;5097;43.260;27.812;2023-07-29T09:23:18;2.70;;;2.33;;
10114;SDS011;5097;43.260;27.812;2023-07-29T09:26:03;3.42;;;2.80;;
10114;SDS011;5097;43.260;27.812;2023-07-29T09:28:50;2.60;;;2.50;;
10114;SDS011;5097;43.260;27.812;2023-07-29T09:31:35;4.10;;;2.90;;
10114;SDS011;5097;43.260;27.812;2023-07-29T09:34:19;5.25;;;3.25;;
10114;SDS011;5097;43.260;27.812;2023-07-29T09:37:04;2.72;;;2.50;;
10114;SDS011;5097;43.260;27.812;2023-07-29T09:39:50;3.35;;;2.28;;
10114;SDS011;5097;43.260;27.812;2023-07-29T09:42:35;3.83;;;2.88;;
10114;SDS011;5097;43.260;27.812;2023-07-29T09:45:19;3.33;;;2.50;;
10114;SDS011;5097;43.260;27.812;2023-07-29T09:48:05;3.10;;;2.42;;
10114;SDS011;5097;43.260;27.812;2023-07-29T09:50:52;2.20;;;2.08;;
10114;SDS011;5097;43.260;27.812;2023-07-29T09:53:39;2.53;;;1.92;;
10114;SDS011;5097;43.260;27.812;2023-07-29T09:56:30;2.00;;;1.90;;
10114;SDS011;5097;43.260;27.812;2023-07-29T09:59:14;2.13;;;1.95;;
10114;SDS011;5097;43.260;27.812;2023-07-29T10:02:03;1.98;;;1.88;;
10114;SDS011;5097;43.260;27.812;2023-07-29T10:04:47;2.20;;;2.10;;
10114;SDS011;5097;43.260;27.812;2023-07-29T10:07:33;4.45;;;2.20;;
10114;SDS011;5097;43.260;27.812;2023-07-29T10:10:18;2.70;;;2.50;;
10114;SDS011;5097;43.260;27.812;2023-07-29T10:13:05;4.47;;;2.40;;
10114;SDS011;5097;43.260;27.812;2023-07-29T10:15:50;2.20;;;2.10;;
10114;SDS011;5097;43.260;27.812;2023-07-29T10:18:37;2.33;;;2.15;;
10114;SDS011;5097;43.260;27.812;2023-07-29T10:21:22;2.08;;;1.98;;
10114;SDS011;5097;43.260;27.812;2023-07-29T10:24:09;2.42;;;2.22;;
10114;SDS011;5097;43.260;27.812;2023-07-29T10:26:59;2.47;;;2.28;;
10114;SDS011;5097;43.260;27.812;2023-07-29T10:29:46;2.10;;;2.00;;
10114;SDS011;5097;43.260;27.812;2023-07-29T10:32:32;4.47;;;2.17;;
10114;SDS011;5097;43.260;27.812;2023-07-29T10:35:17;3.00;;;2.17;;
10114;SDS011;5097;43.260;27.812;2023-07-29T10:38:02;2.90;;;2.70;;
10114;SDS011;5097;43.260;27.812;2023-07-29T10:40:47;2.70;;;2.50;;
10114;SDS011;5097;43.260;27.812;2023-07-29T10:43:35;2.70;;;2.50;;
10114;SDS011;5097;43.260;27.812;2023-07-29T10:46:22;2.75;;;2.55;;
10114;SDS011;5097;43.260;27.812;2023-07-29T10:49:07;3.40;;;3.10;;
10114;SDS011;5097;43.260;27.812;2023-07-29T10:51:51;2.92;;;2.72;;
10114;SDS011;5097;43.260;27.812;2023-07-29T10:54:41;2.55;;;2.35;;
10114;SDS011;5097;43.260;27.812;2023-07-29T10:57:32;2.53;;;2.33;;
10114;SDS011;5097;43.260;27.812;2023-07-29T11:00:19;2.08;;;1.98;;
10114;SDS011;5097;43.260;27.812;2023-07-29T11:03:06;4.47;;;2.30;;
10114;SDS011;5097;43.260;27.812;2023-07-29T11:05:51;4.45;;;2.60;;
10114;SDS011;5097;43.260;27.812;2023-07-29T11:08:37;3.22;;;2.20;;
10114;SDS011;5097;43.260;27.812;2023-07-29T11:11:21;3.10;;;2.03;;
10114;SDS011;5097;43.260;27.812;2023-07-29T11:14:05;4.45;;;2.47;;
10114;SDS011;5097;43.260;27.812;2023-07-29T11:16:51;4.40;;;2.53;;
10114;SDS011;5097;43.260;27.812;2023-07-29T11:19:38;4.28;;;2.50;;
10114;SDS011;5097;43.260;27.812;2023-07-29T11:22:23;5.10;;;2.63;;
10114;SDS011;5097;43.260;27.812;2023-07-29T11:25:10;3.88;;;2.40;;
10114;SDS011;5097;43.260;27.812;2023-07-29T11:27:56;2.58;;;2.17;;
10114;SDS011;5097;43.260;27.812;2023-07-29T11:30:43;2.53;;;2.10;;
10114;SDS011;5097;43.260;27.812;2023-07-29T11:33:27;3.53;;;3.25;;
10114;SDS011;5097;43.260;27.812;2023-07-29T11:36:19;2.90;;;2.70;;
10114;SDS011;5097;43.260;27.812;2023-07-29T11:39:08;2.60;;;2.40;;
10114;SDS011;5097;43.260;27.812;2023-07-29T11:41:54;6.28;;;2.42;;
10114;SDS011;5097;43.260;27.812;2023-07-29T11:44:38;4.60;;;2.10;;
10114;SDS011;5097;43.260;27.812;2023-07-29T11:47:22;4.78;;;3.85;;
10114;SDS011;5097;43.260;27.812;2023-07-29T11:50:07;3.53;;;2.40;;
10114;SDS011;5097;43.260;27.812;2023-07-29T11:52:54;2.90;;;1.92;;
10114;SDS011;5097;43.260;27.812;2023-07-29T11:55:38;3.67;;;2.30;;
10114;SDS011;5097;43.260;27.812;2023-07-29T11:58:22;2.53;;;2.40;;
10114;SDS011;5097;43.260;27.812;2023-07-29T12:01:07;3.03;;;2.20;;
10114;SDS011;5097;43.260;27.812;2023-07-29T12:03:51;6.65;;;2.40;;
10114;SDS011;5097;43.260;27.812;2023-07-29T12:06:35;4.35;;;2.40;;
10114;SDS011;5097;43.260;27.812;2023-07-29T12:09:23;5.30;;;2.50;;
10114;SDS011;5097;43.260;27.812;2023-07-29T12:12:09;2.40;;;2.20;;
10114;SDS011;5097;43.260;27.812;2023-07-29T12:14:53;4.18;;;2.30;;
10114;SDS011;5097;43.260;27.812;2023-07-29T12:17:39;2.70;;;2.10;;
10114;SDS011;5097;43.260;27.812;2023-07-29T12:20:24;2.38;;;2.15;;
10114;SDS011;5097;43.260;27.812;2023-07-29T12:23:09;2.30;;;2.10;;
10114;SDS011;5097;43.260;27.812;2023-07-29T12:25:57;2.97;;;1.85;;
10114;SDS011;5097;43.260;27.812;2023-07-29T12:28:45;3.92;;;2.28;;
10114;SDS011;5097;43.260;27.812;2023-07-29T12:31:33;2.67;;;2.10;;
10114;SDS011;5097;43.260;27.812;2023-07-29T12:34:21;3.88;;;2.47;;
10114;SDS011;5097;43.260;27.812;2023-07-29T12:37:06;5.88;;;2.17;;
10114;SDS011;5097;43.260;27.812;2023-07-29T12:39:51;2.47;;;2.00;;
10114;SDS011;5097;43.260;27.812;2023-07-29T12:42:36;2.25;;;2.10;;
10114;SDS011;5097;43.260;27.812;2023-07-29T12:45:21;5.15;;;2.30;;
10114;SDS011;5097;43.260;27.812;2023-07-29T12:48:09;4.40;;;1.88;;
10114;SDS011;5097;43.260;27.812;2023-07-29T12:50:53;10.43;;;2.42;;
10114;SDS011;5097;43.260;27.812;2023-07-29T12:53:37;5.18;;;3.05;;
10114;SDS011;5097;43.260;27.812;2023-07-29T12:56:21;4.63;;;2.20;;
10114;SDS011;5097;43.260;27.812;2023-07-29T12:59:07;2.47;;;2.28;;
10114;SDS011;5097;43.260;27.812;2023-07-29T13:01:51;5.07;;;2.30;;
10114;SDS011;5097;43.260;27.812;2023-07-29T13:04:35;3.83;;;2.28;;
10114;SDS011;5097;43.260;27.812;2023-07-29T13:07:19;3.95;;;2.53;;
10114;SDS011;5097;43.260;27.812;2023-07-29T13:10:03;3.38;;;2.20;;
10114;SDS011;5097;43.260;27.812;2023-07-29T13:12:48;3.22;;;2.10;;
10114;SDS011;5097;43.260;27.812;2023-07-29T13:15:34;2.50;;;2.22;;
10114;SDS011;5097;43.260;27.812;2023-07-29T13:18:18;6.50;;;2.72;;
10114;SDS011;5097;43.260;27.812;2023-07-29T13:21:02;2.35;;;2.13;;
10114;SDS011;5097;43.260;27.812;2023-07-29T13:23:46;2.88;;;2.40;;
10114;SDS011;5097;43.260;27.812;2023-07-29T13:26:30;4.05;;;2.03;;
10114;SDS011;5097;43.260;27.812;2023-07-29T13:29:15;2.28;;;2.08;;
10114;SDS011;5097;43.260;27.812;2023-07-29T13:32:00;3.78;;;2.28;;
10114;SDS011;5097;43.260;27.812;2023-07-29T13:34:45;5.25;;;2.65;;
10114;SDS011;5097;43.260;27.812;2023-07-29T13:37:29;5.28;;;2.72;;
10114;SDS011;5097;43.260;27.812;2023-07-29T13:40:13;3.92;;;2.03;;
10114;SDS011;5097;43.260;27.812;2023-07-29T13:42:57;2.10;;;1.88;;
10114;SDS011;5097;43.260;27.812;2023-07-29T13:45:41;3.13;;;2.50;;
10114;SDS011;5097;43.260;27.812;2023-07-29T13:48:27;2.28;;;2.08;;
10114;SDS011;5097;43.260;27.812;2023-07-29T13:51:11;2.90;;;2.58;;
10114;SDS011;5097;43.260;27.812;2023-07-29T13:53:55;4.18;;;2.38;;
10114;SDS011;5097;43.260;27.812;2023-07-29T13:56:39;2.50;;;2.22;;
10114;SDS011;5097;43.260;27.812;2023-07-29T13:59:23;3.88;;;2.40;;
10114;SDS011;5097;43.260;27.812;2023-07-29T14:02:08;5.50;;;2.72;;
10114;SDS011;5097;43.260;27.812;2023-07-29T14:04:53;3.17;;;2.58;;
10114;SDS011;5097;43.260;27.812;2023-07-29T14:07:38;2.30;;;2.20;;
10114;SDS011;5097;43.260;27.812;2023-07-29T14:10:22;3.53;;;2.95;;
10114;SDS011;5097;43.260;27.812;2023-07-29T14:13:06;2.53;;;2.00;;
10114;SDS011;5097;43.260;27.812;2023-07-29T14:15:50;2.47;;;2.08;;
10114;SDS011;5097;43.260;27.812;2023-07-29T14:18:34;3.35;;;1.83;;
10114;SDS011;5097;43.260;27.812;2023-07-29T14:21:19;4.32;;;2.10;;
10114;SDS011;5097;43.260;27.812;2023-07-29T14:24:03;4.00;;;2.30;;
10114;SDS011;5097;43.260;27.812;2023-07-29T14:26:49;5.82;;;2.30;;
10114;SDS011;5097;43.260;27.812;2023-07-29T14:29:33;4.05;;;2.20;;
10114;SDS011;5097;43.260;27.812;2023-07-29T14:32:17;3.85;;;2.20;;
10114;SDS011;5097;43.260;27.812;2023-07-29T14:35:04;3.13;;;2.03;;
10114;SDS011;5097;43.260;27.812;2023-07-29T14:37:51;4.15;;;2.15;;
10114;SDS011;5097;43.260;27.812;2023-07-29T14:40:35;4.50;;;2.20;;
10114;SDS011;5097;43.260;27.812;2023-07-29T14:43:20;3.45;;;2.38;;
10114;SDS011;5097;43.260;27.812;2023-07-29T14:46:04;4.15;;;2.30;;
10114;SDS011;5097;43.260;27.812;2023-07-29T14:48:49;3.05;;;2.75;;
10114;SDS011;5097;43.260;27.812;2023-07-29T14:51:33;4.55;;;2.28;;
10114;SDS011;5097;43.260;27.812;2023-07-29T14:54:19;5.00;;;2.10;;
10114;SDS011;5097;43.260;27.812;2023-07-29T14:57:04;3.05;;;2.33;;
10114;SDS011;5097;43.260;27.812;2023-07-29T14:59:49;2.92;;;2.42;;
10114;SDS011;5097;43.260;27.812;2023-07-29T15:02:33;3.10;;;2.05;;
10114;SDS011;5097;43.260;27.812;2023-07-29T15:05:17;3.05;;;2.08;;
10114;SDS011;5097;43.260;27.812;2023-07-29T15:08:02;6.20;;;1.80;;
10114;SDS011;5097;43.260;27.812;2023-07-29T15:10:47;4.07;;;2.40;;
10114;SDS011;5097;43.260;27.812;2023-07-29T15:13:31;2.90;;;2.28;;
10114;SDS011;5097;43.260;27.812;2023-07-29T15:16:15;4.30;;;1.90;;
10114;SDS011;5097;43.260;27.812;2023-07-29T15:19:00;2.00;;;1.90;;
10114;SDS011;5097;43.260;27.812;2023-07-29T15:21:44;23.10;;;17.30;;
10114;SDS011;5097;43.260;27.812;2023-07-29T15:24:28;7.25;;;6.20;;
10114;SDS011;5097;43.260;27.812;2023-07-29T15:27:14;6.72;;;4.65;;
10114;SDS011;5097;43.260;27.812;2023-07-29T15:29:58;9.50;;;2.78;;
10114;SDS011;5097;43.260;27.812;2023-07-29T15:32:46;3.83;;;3.10;;
10114;SDS011;5097;43.260;27.812;2023-07-29T15:35:30;3.45;;;2.70;;
10114;SDS011;5097;43.260;27.812;2023-07-29T15:38:20;2.40;;;2.17;;
10114;SDS011;5097;43.260;27.812;2023-07-29T15:41:04;3.22;;;2.92;;
10114;SDS011;5097;43.260;27.812;2023-07-29T15:43:50;3.40;;;3.08;;
10114;SDS011;5097;43.260;27.812;2023-07-29T15:46:34;2.50;;;2.30;;
10114;SDS011;5097;43.260;27.812;2023-07-29T15:49:19;17.83;;;14.23;;
10114;SDS011;5097;43.260;27.812;2023-07-29T15:52:03;12.13;;;10.05;;
10114;SDS011;5097;43.260;27.812;2023-07-29T15:54:47;11.55;;;7.55;;
10114;SDS011;5097;43.260;27.812;2023-07-29T15:57:34;2.53;;;2.33;;
10114;SDS011;5097;43.260;27.812;2023-07-29T16:00:20;8.25;;;2.22;;
10114;SDS011;5097;43.260;27.812;2023-07-29T16:03:04;4.10;;;2.75;;
10114;SDS011;5097;43.260;27.812;2023-07-29T16:05:49;3.22;;;2.70;;
10114;SDS011;5097;43.260;27.812;2023-07-29T16:08:33;3.50;;;2.55;;
10114;SDS011;5097;43.260;27.812;2023-07-29T16:11:17;3.83;;;2.63;;
10114;SDS011;5097;43.260;27.812;2023-07-29T16:14:02;6.30;;;3.92;;
10114;SDS011;5097;43.260;27.812;2023-07-29T16:16:48;8.02;;;2.80;;
10114;SDS011;5097;43.260;27.812;2023-07-29T16:19:32;2.03;;;1.92;;
10114;SDS011;5097;43.260;27.812;2023-07-29T16:22:16;3.53;;;2.72;;
10114;SDS011;5097;43.260;27.812;2023-07-29T16:25:00;5.20;;;3.25;;
10114;SDS011;5097;43.260;27.812;2023-07-29T16:27:45;3.45;;;2.30;;
10114;SDS011;5097;43.260;27.812;2023-07-29T16:30:30;4.75;;;2.58;;
10114;SDS011;5097;43.260;27.812;2023-07-29T16:33:15;14.35;;;4.45;;